Terminal Aerodrome Forecast
Issued by NWS

Home | Current Version | Previous Version | Text Only | Print | Product List | Glossary On
Versions: 1 2 3 4 5 6 7 8 9 10 11 12 13 14 15 16 17 18 19 20
000
FTUS44 KLIX 261123
TAFMCB
TAF
KMCB 261123Z 2612/2712 15006KT 5SM BR OVC010
     FM261400 16009KT P6SM BKN015
     FM261700 17013KT P6SM BKN035
     FM270000 19010KT P6SM -SHRA VCTS BKN025CB
     FM270400 31007KT 3SM -TSRA OVC015CB
     FM270800 32006KT P6SM BKN025 OVC040=

USA.gov is the U.S. government's official web portal to all federal, state and local government web resources and services.